Nearby METAR Reports

 

KLBE - Latrobe/Westmorl, Pennsylvania, USA
Distance from station: SE 16mi, 26km
Updated: Sat, 29-Apr-2017 10:45am EDT
Overcast
Overcast
 Wind from W
Wind: W 9 mph , 15 km/h
Temperature: 70°F , 21°C
Dew Point: 63°F , 17°C
Humidity: 78%
Barometer: 30.09 inHg , 1019 hPa
Clouds: Overcast
Visibility: 10 miles , 16 km
Cloud details: Overcast 15000 ft
2017/04/29 14:45 KLBE 291445Z 28008KT 10SM OVC150 21/17 A3009
KAGC - Pittsburgh/Alleg, Pennsylvania, USA
Distance from station: WSW 18mi, 30km
Updated: Sat, 29-Apr-2017 10:53am EDT
Clear
Clear
 Wind from SW
Wind: SW 6 mph , 9 km/h
Temperature: 70°F , 21°C
Dew Point: 61°F , 16°C
Humidity: 73%
Barometer: 30.07 inHg , 1018.3 hPa
Clouds: Clear
Visibility: 10 miles , 16 km
2017/04/29 14:53 KAGC 291453Z 23005KT 10SM CLR 21/16 A3007 RMK AO2 SLP183 60002 T02060156 56006 $
 
KBTP - Butler Co., Pennsylvania, USA
Distance from station: NW 29mi, 47km
Updated: Sat, 29-Apr-2017 11:15am EDT
Clear
Clear
 Wind from W
Wind: W 8 mph , 13 km/h
Temperature: 64°F , 18°C
Dew Point: 59°F , 15°C
Humidity: 83%
Barometer: 30.11 inHg , 1019.6 hPa
Clouds: Clear
Visibility: 10 miles , 16 km
2017/04/29 15:15 KBTP 291515Z AUTO 26007KT 10SM CLR 18/15 A3011 RMK AO1
KIDI - Indiana/Stewart, Pennsylvania, USA
Distance from station: ENE 29mi, 47km
Updated: Sat, 29-Apr-2017 11:15am EDT
Clear
Clear
 Wind from WSW
Wind: WSW 10 mph , 17 km/h, Gust: 16 mph , 26 km/h
Temperature: 70°F , 21°C
Dew Point: 63°F , 17°C
Humidity: 78%
Barometer: 30.10 inHg , 1019.3 hPa
Clouds: Clear
Visibility: 10 miles , 16 km
2017/04/29 15:15 KIDI 291515Z AUTO 25009G14KT 10SM CLR 21/17 A3010 RMK A01
 
KPIT - Pittsburgh, Pennsylvania, USA
Distance from station: W 36mi, 57km
Updated: Sat, 29-Apr-2017 10:51am EDT
Overcast
Overcast
 Wind from W
Wind: W 8 mph , 13 km/h
Temperature: 70°F , 21°C
Dew Point: 64°F , 18°C
Humidity: 83%
Barometer: 30.08 inHg , 1018.6 hPa
Clouds: Overcast
Visibility: 10 miles , 16 km
Cloud details: Few Clouds 2200 ft
Partly cloudy 7000 ft
Overcast 14000 ft
2017/04/29 14:51 KPIT 291451Z 28007KT 10SM FEW022 SCT070 OVC140 21/18 A3008 RMK AO2 SLP190 60001 T02060178 53005 $
KJST - Johnstown, Pennsylvania, USA
Distance from station: ESE 41mi, 66km
Updated: Sat, 29-Apr-2017 10:54am EDT
Clear
Clear
 Wind from SW
Wind: SW 12 mph , 19 km/h
Temperature: 66°F , 19°C
Dew Point: 61°F , 16°C
Humidity: 83%
Barometer: 30.09 inHg , 1019 hPa
Clouds: Clear
Visibility: 10 miles , 16 km
2017/04/29 14:54 KJST 291454Z AUTO 22010KT 10SM CLR 19/16 A3009 RMK AO2 SLP181 60001 T01940156 58002
 
KAFJ - Washington, Pennsylvania, USA
Distance from station: WSW 42mi, 68km
Updated: Sat, 29-Apr-2017 11:15am EDT
Few Clouds
Few Clouds
 Wind from S
Wind: S 8 mph , 13 km/h, Gust: 20 mph , 31 km/h
Temperature: 70°F , 21°C
Dew Point: 61°F , 16°C
Humidity: 73%
Barometer: 30.10 inHg , 1019.3 hPa
Clouds: Few Clouds
Visibility: 10 miles , 16 km
Cloud details: Few Clouds 11000 ft
2017/04/29 15:15 KAFJ 291515Z AUTO 18007G17KT 10SM FEW110 21/16 A3010 RMK AO1
KBVI - Beaver Falls Arp, Pennsylvania, USA
Distance from station: WNW 48mi, 77km
Updated: Sat, 29-Apr-2017 10:47am EDT
Overcast
Overcast
 Wind from calm
Wind: Calm
Temperature: 63°F , 17°C
Dew Point: 59°F , 15°C
Humidity: 88%
Barometer: 30.10 inHg , 1019.3 hPa
Clouds: Overcast
Visibility: 10 miles , 16 km
Cloud details: Mostly cloudy 900 ft
Overcast 1500 ft
2017/04/29 14:47 KBVI 291447Z 00000KT 10SM BKN009 OVC015 17/15 A3010